Flight Track Log - Related Links

Times and Time Zones

All times are in EDT time to prevent confusion due to time zone crossing. See the DAL2082 flight status page for this flight to view local times or setup timezone preferences in your user account.

Time Position Orientation Groundspeed Altitude Reporting Facility
EDT Latitude Longitude Course Direction KTS MPH feet Rate Location/Type
03:54PM 40.6378 -73.8614 285° West 198 228 1,800  Level New York Center
03:55PM 40.5867 -73.8289 154° Southeast 272 313 3,000 2,033 Climbing New York Center
03:56PM 40.5472 -73.7400 120° Southeast 277 319 5,900 2,769 Climbing New York Center
03:57PM 41.1023 -73.7825 281° West  Level FlightAware Approximate
03:57PM 40.6167 -73.6833 32° Northeast 250 288 9,000  Level New York TRACON
03:58PM 41.1333 -73.9329 270° West  Level FlightAware Approximate
03:58PM 40.6833 -73.6167 37° Northeast 282 325 10,400  Level New York TRACON
03:59PM 41.1559 -74.0785 304° West  Level FlightAware Approximate
03:59PM 40.7500 -73.5833 21° North 319 367 12,000  Level New York TRACON
04:00PM 41.1763 -74.2315 285° West  Level FlightAware Approximate
04:01PM 40.9183 -73.6517 343° North 348 400 14,800  Level New York Center
04:02PM 41.0083 -73.7106 334° Northwest 360 414 16,800 1,866 Climbing New York Center
04:03PM 41.0903 -73.7664 333° Northwest 366 421 18,500 1,733 Climbing New York Center
04:05PM 41.1200 -74.0569 270° West 366 421 22,000 1,609 Climbing New York Center
04:06PM 41.0950 -74.2044 257° West 386 444 23,300 1,300 Climbing New York Center
04:07PM 41.0697 -74.3572 258° West 404 465 24,600 1,220 Climbing New York Center
04:08PM 41.0442 -74.5100 258° West 424 488 25,800 1,250 Climbing New York Center
04:09PM 41.0181 -74.6706 258° West 435 501 27,100 1,333 Climbing New York Center
04:10PM 40.9939 -74.8286 259° West 446 513 28,400 1,261 Climbing New York Center
04:11PM 40.9633 -74.9861 256° West 446 513 29,600 1,140 Climbing New York Center
04:12PM 40.9247 -75.1378 251° West 446 513 30,700 1,140 Climbing New York Center
04:13PM 40.8894 -75.2947 253° West 446 513 31,900 650 Climbing New York Center
04:14PM 40.8544 -75.4486 253° West 446 513 32,000 50 Climbing New York Center
04:15PM 40.8192 -75.5997 253° West 446 513 32,000  Level New York Center
04:16PM 40.7836 -75.7536 253° West 446 513 32,000  Level New York Center
04:17PM 40.7569 -75.8914 256° West 441 507 32,000  Level New York Center
04:18PM 40.7669 -76.0428 275° West 424 488 32,000  Level New York Center
04:19PM 40.7767 -76.1969 275° West 424 488 32,000  Level New York Center
04:20PM 40.7903 -76.3517 277° West 424 488 32,000  Level New York Center
04:21PM 40.8017 -76.5061 276° West 424 488 32,000  Level New York Center
04:22PM 40.8128 -76.6578 276° West 424 488 32,000  Level New York Center
04:23PM 40.8219 -76.8094 275° West 424 488 32,000  Level New York Center
04:24PM 40.8350 -76.9617 277° West 424 488 32,000  Level New York Center
04:25PM 40.8433 -77.1186 274° West 424 488 32,000  Level New York Center
04:26PM 40.8536 -77.2733 275° West 429 494 32,000  Level New York Center
04:28PM 40.8703 -77.5028 276° West 423 487 32,000  Level Cleveland Center
04:29PM 40.8794 -77.6611 274° West 430 495 32,000  Level Cleveland Center
04:30PM 40.8906 -77.8472 275° West 429 494 32,000  Level Cleveland Center
04:31PM 40.8989 -78.0039 274° West 430 495 32,000  Level Cleveland Center
04:32PM 40.9086 -78.1617 275° West 431 496 32,000  Level Cleveland Center
04:33PM 40.9183 -78.3144 275° West 432 497 32,000  Level Cleveland Center
04:34PM 40.9247 -78.4717 273° West 433 498 32,000  Level Cleveland Center
04:35PM 40.9336 -78.6306 274° West 434 499 32,000  Level Cleveland Center
04:36PM 40.9425 -78.7886 274° West 434 499 32,000  Level Cleveland Center
04:37PM 40.9525 -78.9778 274° West 434 499 32,000  Level Cleveland Center
04:38PM 40.9600 -79.1347 274° West 433 498 32,000  Level Cleveland Center
04:39PM 40.9675 -79.2908 274° West 432 497 32,000  Level Cleveland Center
04:40PM 40.9753 -79.4486 274° West 432 497 32,000  Level Cleveland Center
04:41PM 40.9819 -79.6061 273° West 432 497 32,000  Level Cleveland Center
04:42PM 40.9889 -79.7639 273° West 432 497 32,000  Level Cleveland Center
04:43PM 40.9969 -79.9531 273° West 432 497 32,000  Level Cleveland Center
04:44PM 41.0031 -80.1106 273° West 432 497 32,000  Level Cleveland Center
04:45PM 41.0103 -80.2681 274° West 432 497 32,000  Level Cleveland Center
04:46PM 41.0153 -80.4253 272° West 432 497 32,000  Level Cleveland Center
04:47PM 41.0208 -80.5831 273° West 432 497 32,000  Level Cleveland Center
04:48PM 41.0275 -80.7408 273° West 432 497 32,000  Level Cleveland Center
04:49PM 41.0325 -80.9003 272° West 434 499 32,000  Level Cleveland Center
04:50PM 41.0369 -81.0839 272° West 434 499 32,000  Level Cleveland Center
04:51PM 41.0411 -81.2464 272° West 438 504 32,000  Level Cleveland Center
04:52PM 41.0461 -81.4097 272° West 438 504 32,000  Level Cleveland Center
04:53PM 41.0503 -81.5719 272° West 436 502 32,000  Level Cleveland Center
04:54PM 41.0539 -81.7344 272° West 435 501 32,000  Level Cleveland Center
04:55PM 41.0586 -81.8972 272° West 435 501 32,000  Level Cleveland Center
04:56PM 41.0625 -82.0597 272° West 435 501 32,000  Level Cleveland Center
04:57PM 41.0664 -82.2200 272° West 434 499 32,000  Level Cleveland Center
04:59PM 41.0703 -82.3806 272° West 434 499 32,000  Level Cleveland Center
05:00PM 41.0725 -82.5425 271° West 433 498 32,000  Level Cleveland Center
05:01PM 41.0761 -82.7031 272° West 434 499 32,000  Level Cleveland Center
05:02PM 41.0792 -82.8903 271° West 434 499 32,000  Level Cleveland Center
05:03PM 41.0808 -83.0503 271° West 433 498 32,000  Level Cleveland Center
05:04PM 41.0839 -83.2008 272° West 433 498 32,000  Level Cleveland Center
05:05PM 41.0847 -83.3597 270° West 433 498 32,000  Level Cleveland Center
05:06PM 41.0869 -83.5169 271° West 433 498 32,000  Level Cleveland Center
05:07PM 41.0883 -83.6767 271° West 434 499 32,000  Level Cleveland Center
05:08PM 41.0897 -83.8581 271° West 434 499 32,000  Level Cleveland Center
05:09PM 41.0903 -84.0086 270° West 436 502 32,000  Level Cleveland Center
05:10PM 41.0914 -84.1711 271° West 437 503 32,000  Level Cleveland Center
05:11PM 41.0919 -84.3636 270° West 437 503 32,000  Level Cleveland Center
05:12PM 41.0925 -84.5261 270° West 437 503 32,000  Level Cleveland Center
05:13PM 41.0919 -84.6869 270° West 437 503 32,000  Level Cleveland Center
05:13PM 41.0914 -84.7825 270° West 438 504 32,000  Level Chicago Center
05:14PM 41.0911 -84.9444 270° West 438 504 32,000  Level Chicago Center
05:16PM 41.0908 -85.1072 270° West 438 504 32,000  Level Chicago Center
05:17PM 41.0903 -85.2697 270° West 438 504 32,000  Level Chicago Center
05:18PM 41.0889 -85.4297 269° West 438 504 32,000  Level Chicago Center
05:19PM 41.0875 -85.5922 269° West 437 503 32,000  Level Chicago Center
05:20PM 41.0853 -85.7544 269° West 438 504 32,000  Level Chicago Center
05:21PM 41.0850 -85.9503 270° West 440 506 32,000  Level Chicago Center
05:22PM 41.0828 -86.1153 269° West 443 510 32,000  Level Chicago Center
05:23PM 41.0803 -86.2792 269° West 444 511 32,000  Level Chicago Center
05:24PM 41.0772 -86.4439 269° West 447 514 32,000  Level Chicago Center
05:25PM 41.0742 -86.6106 269° West 451 519 32,000  Level Chicago Center
05:26PM 41.0728 -86.8011 270° West 452 520 32,000  Level Chicago Center
05:27PM 41.0697 -86.9664 269° West 449 517 32,000  Level Chicago Center
05:28PM 41.0650 -87.1319 268° West 449 517 32,000  Level Chicago Center
05:29PM 41.0622 -87.2967 269° West 447 514 32,000  Level Chicago Center
05:30PM 41.0575 -87.4608 268° West 446 513 32,000  Level Chicago Center
05:31PM 41.0531 -87.6247 268° West 444 511 32,000  Level Chicago Center
05:32PM 41.0492 -87.7894 268° West 445 512 32,000  Level Chicago Center
05:33PM 41.0447 -87.9544 268° West 444 511 32,000  Level Chicago Center
05:34PM 41.0394 -88.1194 268° West 445 512 32,000  Level Chicago Center
05:35PM 41.0342 -88.2853 268° West 445 512 32,000  Level Chicago Center
05:36PM 41.0294 -88.4842 268° West 445 512 32,000  Level Chicago Center
05:37PM 41.0244 -88.6461 268° West 444 511 32,000  Level Chicago Center
05:38PM 41.0175 -88.8081 267° West 442 509 32,000  Level Chicago Center
05:39PM 41.0128 -88.9706 268° West 441 507 32,000  Level Chicago Center
05:40PM 41.0069 -89.1314 267° West 440 506 32,000  Level Chicago Center
05:41PM 41.0003 -89.2931 267° West 437 503 32,000  Level Chicago Center
05:42PM 40.9939 -89.4542 267° West 438 504 32,000  Level Chicago Center
05:43PM 40.9869 -89.6128 267° West 438 504 32,000  Level Chicago Center
05:44PM 40.9789 -89.8058 267° West 438 504 32,000  Level Chicago Center
05:45PM 40.9733 -89.9689 267° West 440 506 32,000  Level Chicago Center
05:46PM 40.9647 -90.1306 266° West 441 507 32,000  Level Chicago Center
05:47PM 40.9569 -90.2875 266° West 443 510 32,000  Level Chicago Center
05:48PM 40.9486 -90.4514 266° West 445 512 32,000  Level Chicago Center
05:49PM 40.9408 -90.6136 266° West 445 512 32,000  Level Chicago Center
05:50PM 40.9292 -90.8072 266° West 444 511 32,000  Level Chicago Center
05:51PM 40.9203 -90.9703 266° West 444 511 32,000  Level Chicago Center
05:53PM 40.9108 -91.1314 266° West 444 511 32,000  Level Chicago Center
05:54PM 40.9019 -91.2939 266° West 444 511 32,000  Level Chicago Center
05:55PM 40.8925 -91.4636 266° West 445 512 32,000  Level Chicago Center
05:56PM 40.8828 -91.6256 266° West 446 513 32,000  Level Chicago Center
05:57PM 40.8725 -91.7883 265° West 447 514 32,000  Level Chicago Center
05:58PM 40.8619 -91.9506 265° West 448 516 32,000  Level Chicago Center
05:59PM 40.8494 -92.1442 265° West 447 514 32,000  Level Chicago Center
06:00PM 40.8394 -92.3058 265° West 447 514 32,000  Level Chicago Center
06:01PM 40.8292 -92.4669 265° West 447 514 32,000  Level Chicago Center
06:02PM 40.8183 -92.6269 265° West 446 513 32,000  Level Chicago Center
06:03PM 40.8061 -92.7875 264° West 446 513 32,000  Level Chicago Center
06:04PM 40.7933 -92.9786 265° West 446 513 32,000  Level Chicago Center
06:05PM 40.7814 -93.1381 264° West 443 510 32,000  Level Chicago Center
06:06PM 40.7692 -93.2969 264° West 442 509 32,000  Level Chicago Center
06:07PM 40.7614 -93.3925 264° West 442 509 32,000  Level Minneapolis Center
06:08PM 40.7467 -93.5867 264° West 444 511 32,000  Level Minneapolis Center
06:09PM 40.7342 -93.7494 264° West 446 513 32,000  Level Minneapolis Center
06:10PM 40.7217 -93.9106 264° West 448 516 32,000  Level Minneapolis Center
06:11PM 40.7086 -94.0725 264° West 448 516 32,000  Level Minneapolis Center
06:12PM 40.6936 -94.2350 263° West 449 517 32,000  Level Minneapolis Center
06:13PM 40.6792 -94.3994 263° West 450 518 32,000  Level Minneapolis Center
06:14PM 40.6650 -94.5775 264° West 451 519 32,000  Level Minneapolis Center
06:15PM 40.6494 -94.7450 263° West 453 521 32,000  Level Minneapolis Center
06:16PM 40.6344 -94.9122 263° West 455 524 32,000  Level Minneapolis Center
06:17PM 40.6203 -95.0781 264° West 455 524 32,000  Level Minneapolis Center
06:18PM 40.6017 -95.2758 263° West 455 524 32,000  Level Minneapolis Center
06:19PM 40.5867 -95.4400 263° West 455 524 32,000 48 Level Minneapolis Center
06:20PM 40.5708 -95.6056 263° West 454 522 32,100 629 Climbing Minneapolis Center
06:21PM 40.5547 -95.7719 263° West 455 524 33,300 1,171 Climbing Minneapolis Center
06:22PM 40.5386 -95.9369 263° West 455 524 34,500 1,082 Climbing Minneapolis Center
06:23PM 40.5228 -96.0989 263° West 451 519 35,500 732 Climbing Minneapolis Center
06:24PM 40.5058 -96.2619 262° West 451 519 36,000 244 Climbing Minneapolis Center
06:25PM 40.4900 -96.4269 263° West 451 519 36,000  Level Minneapolis Center
06:26PM 40.4725 -96.5922 262° West 452 520 36,000  Level Minneapolis Center
06:27PM 40.4556 -96.7581 262° West 452 520 36,000  Level Minneapolis Center
06:28PM 40.4342 -96.9567 262° West 455 524 36,000  Level Minneapolis Center
06:29PM 40.4167 -97.1233 262° West 456 525 36,000  Level Minneapolis Center
06:30PM 40.3972 -97.2892 261° West 457 526 36,000  Level Minneapolis Center
06:31PM 40.3786 -97.4597 262° West 459 528 36,000  Level Minneapolis Center
06:32PM 40.3606 -97.6267 262° West 459 528 36,000  Level Minneapolis Center
06:33PM 40.3408 -97.7925 261° West 459 528 36,000  Level Minneapolis Center
06:34PM 40.3214 -97.9581 261° West 459 528 36,000  Level Minneapolis Center
06:35PM 40.3022 -98.1217 261° West 459 528 36,000  Level Minneapolis Center
06:36PM 40.2825 -98.2856 261° West 458 527 36,000  Level Minneapolis Center
06:37PM 40.2636 -98.4492 261° West 456 525 36,000  Level Minneapolis Center
06:38PM 40.2433 -98.6111 261° West 455 524 36,000  Level Minneapolis Center
06:39PM 40.2189 -98.8067 261° West 454 522 36,000  Level Minneapolis Center
06:40PM 40.1994 -98.9697 261° West 453 521 36,000  Level Minneapolis Center
06:41PM 40.1794 -99.1328 261° West 453 521 36,000  Level Minneapolis Center
06:42PM 40.1625 -99.2631 260° West 454 522 36,000  Level Denver Center
06:43PM 40.1408 -99.4256 260° West 454 522 36,000  Level Denver Center
06:44PM 40.1203 -99.5906 261° West 456 525 36,000  Level Denver Center
06:45PM 40.0978 -99.7533 260° West 456 525 36,000  Level Denver Center
06:46PM 40.0736 -99.9383 260° West 456 525 36,000  Level Denver Center
06:47PM 40.0522 -100.0933 260° West 456 525 36,000  Level Denver Center
06:48PM 40.0275 -100.2767 260° West 456 525 36,000  Level Denver Center
06:49PM 40.0061 -100.4319 260° West 456 525 36,000  Level Denver Center
06:50PM 39.9836 -100.5883 259° West 456 525 36,000  Level Denver Center
06:51PM 39.9589 -100.7678 260° West 452 520 36,000  Level Denver Center
06:53PM 39.9369 -100.9211 259° West 451 519 36,000  Level Denver Center
06:54PM 39.9144 -101.0758 259° West 451 519 36,000  Level Denver Center
06:55PM 39.8889 -101.2544 259° West 450 518 36,000  Level Denver Center
06:56PM 39.8664 -101.4083 259° West 451 519 36,000  Level Denver Center
06:57PM 39.8392 -101.5881 259° West 451 519 36,000  Level Denver Center
06:58PM 39.8158 -101.7458 259° West 459 528 36,000  Level Denver Center
06:59PM 39.7917 -101.9019 259° West 460 529 36,000  Level Denver Center
07:00PM 39.7636 -102.0844 259° West 461 531 36,000  Level Denver Center
07:01PM 39.7394 -102.2419 259° West 461 531 36,000  Level Denver Center
07:02PM 39.7114 -102.4250 259° West 462 532 36,000  Level Denver Center
07:03PM 39.6867 -102.5808 258° West 462 532 36,000  Level Denver Center
07:04PM 39.6581 -102.7592 258° West 461 531 36,000  Level Denver Center
07:05PM 39.6317 -102.9203 258° West 459 528 36,000  Level Denver Center
07:06PM 39.6047 -103.0817 258° West 459 528 36,000  Level Denver Center
07:07PM 39.5783 -103.2433 258° West 459 528 36,000  Level Denver Center
07:08PM 39.5525 -103.4036 258° West 457 526 36,000  Level Denver Center
07:09PM 39.5250 -103.5661 258° West 460 529 36,000  Level Denver Center
07:10PM 39.4975 -103.7272 258° West 460 529 36,000  Level Denver Center
07:11PM 39.4703 -103.8881 258° West 459 528 36,000  Level Denver Center
07:12PM 39.4417 -104.0489 257° West 459 528 36,000  Level Denver Center
07:13PM 39.4144 -104.2081 258° West 457 526 36,000  Level Denver Center
07:14PM 39.3803 -104.4006 257° West 457 526 36,000  Level Denver Center
07:15PM 39.3528 -104.5619 258° West 456 525 36,000  Level Denver Center
07:16PM 39.3239 -104.7225 257° West 456 525 36,000  Level Denver Center
07:17PM 39.2950 -104.8825 257° West 456 525 36,000  Level Denver Center
07:18PM 39.2669 -105.0400 257° West 453 521 36,000  Level Denver Center
07:19PM 39.2392 -105.1953 257° West 449 517 36,000  Level Denver Center
07:20PM 39.2103 -105.3511 257° West 446 513 36,000  Level Denver Center
07:21PM 39.1819 -105.5069 257° West 446 513 36,000  Level Denver Center
07:22PM 39.1519 -105.6639 256° West 447 514 36,000  Level Denver Center
07:23PM 39.1228 -105.8217 257° West 450 518 36,000  Level Denver Center
07:24PM 39.0928 -105.9794 256° West 451 519 36,000  Level Denver Center
07:25PM 39.0622 -106.1367 256° West 453 521 36,000  Level Denver Center
07:26PM 39.0269 -106.3114 255° West 454 522 36,000  Level Denver Center
07:27PM 38.9956 -106.4711 256° West 455 524 36,000  Level Denver Center
07:28PM 38.9650 -106.6286 256° West 454 522 36,000  Level Denver Center
07:29PM 38.9339 -106.7850 256° West 453 521 36,000  Level Denver Center
07:30PM 38.9019 -106.9431 255° West 453 521 36,000  Level Denver Center
07:31PM 38.8719 -107.0969 256° West 446 513 36,000  Level Denver Center
07:32PM 38.8406 -107.2506 255° West 441 507 36,000  Level Denver Center
07:33PM 38.8044 -107.4389 256° West 446 513 36,000  Level Denver Center
07:34PM 38.7733 -107.5919 255° West 446 513 36,000  Level Denver Center
07:36PM 38.7428 -107.7444 256° West 445 512 36,000  Level Denver Center
07:37PM 38.7058 -107.9028 253° West 437 503 36,000  Level Denver Center
07:38PM 38.6742 -108.0550 255° West 440 506 36,000  Level Denver Center
07:39PM 38.6425 -108.2056 255° West 439 505 36,000  Level Denver Center
07:40PM 38.6083 -108.3689 255° West 439 505 36,000  Level Denver Center
07:41PM 38.5758 -108.5211 255° West 442 509 36,000  Level Denver Center
07:42PM 38.5439 -108.6722 255° West 442 509 36,000  Level Denver Center
07:43PM 38.5086 -108.8333 254° West 439 505 36,000  Level Denver Center
07:44PM 38.4758 -108.9844 255° West 439 505 36,000  Level Denver Center
07:45PM 38.4428 -109.1350 254° West 441 507 36,000  Level Denver Center
07:46PM 38.4078 -109.2844 253° West 435 501 36,000  Level Denver Center
07:47PM 38.3753 -109.4283 254° West 435 501 36,000  Level Denver Center
07:48PM 38.3375 -109.5989 254° West 445 512 36,000  Level Denver Center
07:49PM 38.3042 -109.7444 254° West 445 512 36,000  Level Denver Center
07:50PM 38.2714 -109.8922 254° West 445 512 36,000  Level Denver Center
07:51PM 38.2289 -110.0747 254° West 446 513 36,000  Level Denver Center
07:52PM 38.1942 -110.2269 254° West 446 513 36,000  Level Denver Center
07:53PM 38.1583 -110.3789 253° West 446 513 36,000  Level Denver Center
07:54PM 38.1233 -110.5314 254° West 447 514 36,000  Level Salt Lake Center
07:55PM 38.0881 -110.6833 254° West 447 514 36,000  Level Salt Lake Center
07:56PM 38.0506 -110.8344 253° West 447 514 36,000  Level Denver Center
07:57PM 38.0161 -110.9831 254° West 442 509 36,000  Level Denver Center
07:58PM 37.9733 -111.1636 253° West 444 511 36,000  Level Denver Center
07:59PM 37.9339 -111.3108 251° West 446 513 36,000  Level Salt Lake Center
08:00PM 37.8992 -111.4617 254° West 445 512 36,000  Level Salt Lake Center
08:01PM 37.8614 -111.6117 252° West 446 513 36,000 -439 Level Salt Lake Center
08:02PM 37.8247 -111.7622 253° West 449 517 35,100 -878 Descending Salt Lake Center
08:03PM 37.7869 -111.9128 252° West 449 517 34,200 -537 Descending Salt Lake Center
08:04PM 37.7506 -112.0636 253° West 453 521 34,000 -98 Descending Salt Lake Center
08:05PM 37.7122 -112.2181 253° West 453 521 34,000  Level Salt Lake Center
08:06PM 37.6561 -112.3611 244° Southwest 458 527 34,000  Level Salt Lake Center
08:07PM 37.5603 -112.5128 231° Southwest 459 528 34,000  Level Salt Lake Center
08:08PM 37.4803 -112.6419 232° Southwest 459 528 34,000 -305 Level Salt Lake Center
08:09PM 37.4142 -112.7478 232° Southwest 466 536 33,400 -807 Descending Los Angeles Center
08:10PM 37.3319 -112.8817 232° Southwest 471 542 32,400 -919 Descending Los Angeles Center
08:11PM 37.2506 -113.0125 232° Southwest 472 543 31,500 -919 Descending Los Angeles Center
08:12PM 37.1694 -113.1425 232° Southwest 472 543 30,500 -1,016 Descending Los Angeles Center
08:13PM 37.0717 -113.2997 232° Southwest 473 544 29,400 -1,024 Descending Los Angeles Center
08:14PM 36.9897 -113.4303 232° Southwest 475 547 28,400 -927 Descending Los Angeles Center
08:15PM 36.9069 -113.5625 232° Southwest 479 551 27,500 -1,113 Descending Los Angeles Center
08:17PM 36.8222 -113.6942 231° Southwest 483 556 26,100 -2,081 Descending Los Angeles Center
08:18PM 36.7406 -113.8250 232° Southwest 483 556 23,200 -2,829 Descending Los Angeles Center
08:19PM 36.6617 -113.9481 231° Southwest 460 529 20,300 -2,683 Descending Los Angeles Center
08:20PM 36.5853 -114.0678 232° Southwest 445 512 17,700 -2,625 Descending Los Angeles Center
08:20PM 36.5600 -114.1094 233° Southwest 443 510 16,800 -2,857 Descending Los Angeles Center
08:20PM 36.5342 -114.1586 237° Southwest 435 501 15,700 -3,273 Descending Los Angeles Center
08:21PM 36.5133 -114.2197 247° West 431 496 14,400 -2,507 Descending Los Angeles Center
08:21PM 36.4667 -114.3214 240° Southwest 414 476 12,900 -1,574 Descending Los Angeles Center
08:22PM 36.4611 -114.3344 242° Southwest 412 474 12,800 -689 Descending Los Angeles Center
08:22PM 36.4172 -114.4292 240° Southwest 353 406 12,200 -677 Descending Los Angeles Center
08:23PM 36.4108 -114.4433 241° Southwest 367 422 12,100 -200 Descending Los Angeles Center
08:23PM 36.3492 -114.4925 213° Southwest 307 353 12,000 -97 Descending Los Angeles Center
08:24PM 36.3375 -114.4942 187° South 324 373 12,000 -985 Level Los Angeles Center
08:25PM 36.2606 -114.5228 197° South 299 344 10,900 -1,161 Descending Los Angeles Center
08:25PM 36.2561 -114.5250 202° Southwest 311 358 10,800 -1,233 Descending Los Angeles Center
08:26PM 36.1861 -114.6164 227° Southwest 305 351 9,400 -1,309 Descending Los Angeles Center
08:27PM 36.1608 -114.6872 246° West 284 327 8,400 -1,065 Descending Los Angeles Center
08:27PM 36.1564 -114.7056 253° West 292 336 8,300 -320 Descending Los Angeles Center
08:28PM 36.1414 -114.7906 258° West 262 302 8,000 -496 Descending Los Angeles Center
08:29PM 36.1367 -114.8711 266° West 218 251 7,300 -900 Descending Los Angeles Center
08:30PM 36.1317 -114.9475 265° West 219 252 6,200 -1,000 Descending Los Angeles Center
08:31PM 36.1356 -115.0242 274° West 215 247 5,200 -881 Descending Los Angeles Center
08:32PM 36.1375 -115.0733 273° West 188 216 4,600 -984 Descending Los Angeles Center
08:32PM 36.1392 -115.0875 278° West 189 217 4,200 -1,475 Descending Los Angeles Center
08:33PM 36.1297 -115.1267 253° West 150 173 3,100 -1,452 Descending Los Angeles Center
08:33PM 36.1256 -115.1403 249° West 150 173 2,700 -750 Descending Los Angeles Center
08:34PM 36.0894 -115.1617 206° Southwest 142 163 2,100 -581 Descending Los Angeles Center

Login

Don't have an account? Register now (free) for customized features, flight alerts, and more!